Time;durP1;ratioP1;P1;durP2;ratioP2;P2;SDS_P1;SDS_P2;PMS_P1;PMS_P2;Temp;Humidity;BMP_temperature;BMP_pressure;BME280_temperature;BME280_humidity;BME280_pressure;Samples;Min_cycle;Max_cycle;Signal;HPM_P1;HPM_P2
2022/05/15 00:00:39;;;;;;;1.60;1.10;;;9.50;99.90;;;;;;4945490;28;20043;-81
2022/05/15 00:03:11;;;;;;;3.75;1.90;;;9.40;99.90;;;;;;4948064;29;20058;-79
2022/05/15 00:05:38;;;;;;;2.38;1.83;;;9.50;99.90;;;;;;4951600;28;20066;-79
2022/05/15 00:08:10;;;;;;;3.25;1.50;;;9.40;99.90;;;;;;4951178;28;20432;-79
2022/05/15 00:10:38;;;;;;;3.85;2.33;;;9.40;99.90;;;;;;4952405;28;20059;-79
2022/05/15 00:13:07;;;;;;;4.20;1.52;;;9.40;99.90;;;;;;4952303;29;20411;-79
2022/05/15 00:15:35;;;;;;;2.83;1.83;;;9.30;99.90;;;;;;4953288;28;20427;-80
2022/05/15 00:18:03;;;;;;;1.63;1.20;;;9.30;99.90;;;;;;4950154;29;20106;-79
2022/05/15 00:20:30;;;;;;;2.63;1.60;;;9.30;99.90;;;;;;4950925;28;20063;-78
2022/05/15 00:22:58;;;;;;;7.97;1.98;;;9.30;99.90;;;;;;4953803;28;20135;-79
2022/05/15 00:25:27;;;;;;;3.15;1.88;;;9.30;99.90;;;;;;4956203;28;20051;-79
2022/05/15 00:27:55;;;;;;;2.80;1.60;;;9.20;99.90;;;;;;4950193;28;20051;-79
2022/05/15 00:30:23;;;;;;;1.90;1.73;;;9.30;99.90;;;;;;4951617;28;20055;-79
2022/05/15 00:32:51;;;;;;;4.38;1.75;;;9.20;99.90;;;;;;4951219;28;20133;-77
2022/05/15 00:35:19;;;;;;;2.20;1.70;;;9.20;99.90;;;;;;4953067;28;20110;-79
2022/05/15 00:37:48;;;;;;;2.83;2.22;;;9.30;99.90;;;;;;4948271;29;20070;-80
2022/05/15 00:40:18;;;;;;;5.50;1.55;;;9.30;99.90;;;;;;4948895;29;20039;-79
2022/05/15 00:42:48;;;;;;;3.25;1.80;;;9.30;99.90;;;;;;4952296;28;20051;-80
2022/05/15 00:45:22;;;;;;;8.65;2.25;;;9.30;99.90;;;;;;4949693;29;20050;-79
2022/05/15 00:47:52;;;;;;;3.60;1.70;;;9.40;99.90;;;;;;4950812;28;20604;-80
2022/05/15 00:50:25;;;;;;;4.18;2.10;;;9.40;99.90;;;;;;4949492;29;20065;-81
2022/05/15 00:52:56;;;;;;;7.95;2.72;;;9.50;99.90;;;;;;4953782;28;20146;-82
2022/05/15 00:55:27;;;;;;;4.13;2.35;;;9.50;99.90;;;;;;4950817;28;20538;-81
2022/05/15 00:58:01;;;;;;;2.50;2.03;;;9.50;99.90;;;;;;4949628;29;20055;-81
2022/05/15 01:00:30;;;;;;;2.63;2.05;;;9.60;99.90;;;;;;4935906;29;20055;-81
2022/05/15 01:03:04;;;;;;;2.55;2.35;;;9.50;99.90;;;;;;4952997;28;20065;-81
2022/05/15 01:05:34;;;;;;;3.58;2.40;;;9.50;99.90;;;;;;4933236;29;20039;-81
2022/05/15 01:08:02;;;;;;;2.30;2.08;;;9.50;99.90;;;;;;4948402;29;20047;-80
2022/05/15 01:10:31;;;;;;;3.55;3.00;;;9.50;99.90;;;;;;4952939;28;20047;-80
2022/05/15 01:13:00;;;;;;;3.42;3.10;;;9.50;99.90;;;;;;4937714;29;20109;-80
2022/05/15 01:15:29;;;;;;;4.90;3.25;;;9.60;99.90;;;;;;4953470;28;20138;-81
2022/05/15 01:18:00;;;;;;;;;;;9.60;99.90;;;;;;4953752;29;20047;-81
2022/05/15 01:20:31;;;;;;;5.18;3.20;;;9.60;99.90;;;;;;4955367;29;19926;-81
2022/05/15 01:23:00;;;;;;;5.38;3.50;;;9.70;99.90;;;;;;4954588;29;20047;-81
2022/05/15 01:25:31;;;;;;;5.75;3.35;;;9.70;99.90;;;;;;4948740;29;20082;-81
2022/05/15 01:28:05;;;;;;;4.28;3.38;;;9.70;99.90;;;;;;4946490;29;20059;-81
2022/05/15 01:30:34;;;;;;;4.60;3.90;;;9.80;99.90;;;;;;4956407;28;20079;-81
2022/05/15 01:33:02;;;;;;;6.13;3.90;;;9.70;99.90;;;;;;4952363;28;20050;-81
2022/05/15 01:35:30;;;;;;;7.25;4.13;;;9.60;99.90;;;;;;4952846;28;20059;-81
2022/05/15 01:37:57;;;;;;;4.15;3.75;;;9.60;99.90;;;;;;4955427;29;20055;-81
2022/05/15 01:40:26;;;;;;;4.18;3.83;;;9.60;99.90;;;;;;4955129;28;20566;-80
2022/05/15 01:42:54;;;;;;;6.20;4.90;;;9.50;99.90;;;;;;4953329;29;20057;-81
2022/05/15 01:45:22;;;;;;;7.50;5.20;;;9.50;99.90;;;;;;4951894;28;20122;-80
2022/05/15 01:47:50;;;;;;;5.00;4.50;;;9.50;99.90;;;;;;4954428;29;20047;-80
2022/05/15 01:50:18;;;;;;;8.00;4.35;;;9.50;99.90;;;;;;4951890;28;20094;-81
2022/05/15 01:52:46;;;;;;;6.53;4.70;;;9.50;99.90;;;;;;4952060;29;20107;-81
2022/05/15 01:55:14;;;;;;;7.38;4.78;;;9.50;99.90;;;;;;4937196;29;20464;-81
2022/05/15 01:57:45;;;;;;;7.50;4.68;;;9.50;99.90;;;;;;4955294;29;20058;-80
2022/05/15 02:00:19;;;;;;;4.95;4.38;;;9.50;99.90;;;;;;4953184;28;20389;-81
2022/05/15 02:02:49;;;;;;;5.43;4.93;;;9.50;99.90;;;;;;4935863;29;20149;-80
2022/05/15 02:05:18;;;;;;;8.23;4.82;;;9.50;99.90;;;;;;4954684;28;20078;-79
2022/05/15 02:07:47;;;;;;;8.60;5.13;;;9.50;99.90;;;;;;4954156;29;20110;-80
2022/05/15 02:10:16;;;;;;;5.80;5.20;;;9.40;99.90;;;;;;4951750;29;20102;-80
2022/05/15 02:12:46;;;;;;;8.40;6.40;;;9.40;99.90;;;;;;4953320;29;20106;-80
2022/05/15 02:15:15;;;;;;;7.35;6.15;;;9.40;99.90;;;;;;4954316;29;20051;-80
2022/05/15 02:17:43;;;;;;;9.27;6.35;;;9.50;99.90;;;;;;4952921;29;20047;-79
2022/05/15 02:20:13;;;;;;;6.70;6.10;;;9.50;99.90;;;;;;4953375;28;20043;-80
2022/05/15 02:22:41;;;;;;;7.63;7.03;;;9.50;99.90;;;;;;4936757;29;20047;-80
2022/05/15 02:25:12;;;;;;;6.20;5.60;;;9.40;99.90;;;;;;4953591;28;20059;-80
2022/05/15 02:27:43;;;;;;;7.35;6.57;;;9.50;99.90;;;;;;4953281;29;20110;-80
2022/05/15 02:30:14;;;;;;;8.07;7.28;;;9.50;99.90;;;;;;4951932;29;20055;-81
2022/05/15 02:32:42;;;;;;;8.38;7.68;;;9.50;99.90;;;;;;4937183;29;20073;-80
2022/05/15 02:35:11;;;;;;;9.07;7.07;;;9.40;99.90;;;;;;4955534;28;20043;-81
2022/05/15 02:37:41;;;;;;;7.47;6.75;;;9.40;99.90;;;;;;4950935;29;20158;-81
2022/05/15 02:40:10;;;;;;;7.97;6.93;;;9.40;99.90;;;;;;4951880;28;20063;-81
2022/05/15 02:42:38;;;;;;;9.13;6.97;;;9.50;99.90;;;;;;4936510;29;20047;-81
2022/05/15 02:45:07;;;;;;;8.75;7.90;;;9.40;99.90;;;;;;4934382;29;20146;-78
2022/05/15 02:47:36;;;;;;;8.25;6.57;;;9.40;99.90;;;;;;4934058;29;20117;-79
2022/05/15 02:52:50;;;;;;;6.40;5.82;;;9.30;99.90;;;;;;4924635;29;20054;-78
2022/05/15 02:55:18;;;;;;;6.15;5.65;;;9.30;99.90;;;;;;4936075;29;20054;-77
2022/05/15 02:57:46;;;;;;;6.05;5.55;;;9.30;99.90;;;;;;4951028;28;20055;-79
2022/05/15 03:00:15;;;;;;;7.65;6.38;;;9.40;99.90;;;;;;4951523;29;20065;-78
2022/05/15 03:02:46;;;;;;;8.90;6.93;;;9.40;99.90;;;;;;4954158;28;20047;-78
2022/05/15 03:05:17;;;;;;;11.20;7.32;;;9.40;99.90;;;;;;4933548;29;20430;-79
2022/05/15 03:07:44;;;;;;;8.27;7.25;;;9.40;99.90;;;;;;4935118;29;20055;-80
2022/05/15 03:10:16;;;;;;;8.05;6.00;;;9.40;99.90;;;;;;4950737;28;20058;-80
2022/05/15 03:12:44;;;;;;;7.15;6.45;;;9.50;99.90;;;;;;4953641;28;20057;-79
2022/05/15 03:15:14;;;;;;;7.70;6.50;;;9.50;99.90;;;;;;4949462;28;20051;-79
2022/05/15 03:17:45;;;;;;;6.45;5.88;;;9.40;99.90;;;;;;4935844;29;20077;-79
2022/05/15 03:20:15;;;;;;;6.88;6.15;;;9.40;99.90;;;;;;4954194;28;20571;-79
2022/05/15 03:22:42;;;;;;;7.05;6.35;;;9.40;99.90;;;;;;4950530;29;20098;-78
2022/05/15 03:25:11;;;;;;;7.15;6.45;;;9.40;99.90;;;;;;4952087;28;20087;-79
2022/05/15 03:27:38;;;;;;;6.50;5.25;;;9.40;99.90;;;;;;4936564;29;20098;-79
2022/05/15 03:30:07;;;;;;;6.20;5.60;;;9.50;99.90;;;;;;4954183;28;20047;-79
2022/05/15 03:32:37;;;;;;;6.13;5.63;;;9.50;99.90;;;;;;4934146;29;20043;-77
2022/05/15 03:35:08;;;;;;;5.60;5.10;;;9.50;99.90;;;;;;4950760;29;20059;-79
2022/05/15 03:37:36;;;;;;;7.40;5.07;;;9.50;99.90;;;;;;4953470;29;20051;-79
2022/05/15 03:40:05;;;;;;;6.53;5.45;;;9.50;99.90;;;;;;4940992;29;20047;-79
2022/05/15 03:42:32;;;;;;;7.97;5.75;;;9.40;99.90;;;;;;4950848;29;20478;-79
2022/05/15 03:45:00;;;;;;;6.43;5.75;;;9.40;99.90;;;;;;4950196;29;20047;-79
2022/05/15 03:47:27;;;;;;;4.93;4.50;;;9.50;99.90;;;;;;4935716;29;20105;-79
2022/05/15 03:49:54;;;;;;;5.47;4.90;;;9.60;99.90;;;;;;4951990;28;20566;-79
2022/05/15 03:52:28;;;;;;;6.47;5.40;;;9.60;99.90;;;;;;4951044;29;20043;-79
2022/05/15 03:54:58;;;;;;;5.53;4.35;;;9.70;99.90;;;;;;4953270;28;20130;-80
2022/05/15 03:57:26;;;;;;;5.88;4.68;;;9.80;99.90;;;;;;4937637;29;20051;-79
2022/05/15 03:59:54;;;;;;;5.57;5.07;;;9.90;99.90;;;;;;4930979;29;20050;-79
2022/05/15 04:02:21;;;;;;;6.45;4.38;;;10.00;99.90;;;;;;4954892;29;20043;-79
2022/05/15 04:04:49;;;;;;;5.05;4.55;;;10.10;99.90;;;;;;4959231;28;20047;-80
2022/05/15 04:07:16;;;;;;;5.88;4.93;;;10.10;99.90;;;;;;4952772;28;20043;-79
2022/05/15 04:09:45;;;;;;;5.45;4.95;;;10.10;99.90;;;;;;4932545;29;20074;-79
2022/05/15 04:12:14;;;;;;;4.93;4.53;;;10.20;99.90;;;;;;4951938;29;20047;-79
2022/05/15 04:14:42;;;;;;;4.40;4.10;;;10.20;99.90;;;;;;4935156;29;20090;-80
2022/05/15 04:17:10;;;;;;;5.00;4.57;;;10.20;99.90;;;;;;4951666;28;20055;-78
2022/05/15 04:19:39;;;;;;;4.45;4.15;;;10.30;99.90;;;;;;4949926;29;20150;-78
2022/05/15 04:22:07;;;;;;;4.13;3.72;;;10.30;99.90;;;;;;4950318;29;20058;-78
2022/05/15 04:24:35;;;;;;;3.67;3.47;;;10.20;99.90;;;;;;4951751;28;20053;-78
2022/05/15 04:27:05;;;;;;;4.00;3.70;;;10.20;99.90;;;;;;4952586;29;20162;-79
2022/05/15 04:29:33;;;;;;;4.22;3.92;;;10.10;99.90;;;;;;4947724;28;20515;-78
2022/05/15 04:32:00;;;;;;;5.15;3.70;;;10.00;99.90;;;;;;4935164;29;20106;-79
2022/05/15 04:34:30;;;;;;;4.78;4.18;;;10.00;99.90;;;;;;4951995;29;20098;-79
2022/05/15 04:36:57;;;;;;;4.25;3.90;;;10.00;99.90;;;;;;4951018;28;20047;-80
2022/05/15 04:39:25;;;;;;;5.30;3.63;;;10.00;99.90;;;;;;4952197;28;20134;-80
2022/05/15 04:41:52;;;;;;;4.10;3.80;;;10.10;99.90;;;;;;4952047;28;20043;-78
2022/05/15 04:44:21;;;;;;;3.67;3.38;;;10.10;99.90;;;;;;4951021;28;20059;-79
2022/05/15 04:46:48;;;;;;;4.28;3.42;;;10.10;99.90;;;;;;4950217;28;20065;-79
2022/05/15 04:49:15;;;;;;;3.28;3.08;;;10.20;99.90;;;;;;4952089;28;20047;-78
2022/05/15 04:51:43;;;;;;;4.10;3.72;;;10.20;99.90;;;;;;4951019;29;20076;-79
2022/05/15 04:54:10;;;;;;;5.68;3.90;;;10.20;99.90;;;;;;4933494;29;20074;-79
2022/05/15 04:56:40;;;;;;;4.00;3.70;;;10.20;99.90;;;;;;4951784;28;20047;-80
2022/05/15 04:59:10;;;;;;;4.20;3.30;;;10.20;99.90;;;;;;4951572;28;20497;-80
2022/05/15 05:01:58;;;;;;;3.67;3.25;;;10.20;99.90;;;;;;4950635;28;20067;-79
2022/05/15 05:04:25;;;;;;;3.95;3.65;;;10.30;99.90;;;;;;4955234;28;20055;-80
2022/05/15 05:07:09;;;;;;;5.90;3.70;;;10.30;99.90;;;;;;4951472;29;20039;-79
2022/05/15 05:09:39;;;;;;;5.93;4.78;;;10.30;99.90;;;;;;4938150;29;20055;-80
2022/05/15 05:12:08;;;;;;;4.72;4.10;;;10.30;99.90;;;;;;4955687;28;20078;-79
2022/05/15 05:14:35;;;;;;;4.70;4.22;;;10.30;99.90;;;;;;4956579;28;20082;-80
2022/05/15 05:17:05;;;;;;;5.75;4.40;;;10.30;99.90;;;;;;4954461;28;20042;-79
2022/05/15 05:19:32;;;;;;;5.20;4.75;;;10.30;99.90;;;;;;4955130;28;20070;-79
2022/05/15 05:21:59;;;;;;;5.65;4.80;;;10.40;99.90;;;;;;4954248;28;20051;-80
2022/05/15 05:24:26;;;;;;;7.75;4.30;;;10.50;99.90;;;;;;4952864;28;20464;-80
2022/05/15 05:26:54;;;;;;;4.03;3.72;;;10.60;99.90;;;;;;4951323;29;20467;-81
2022/05/15 05:29:21;;;;;;;5.72;4.47;;;10.60;99.90;;;;;;4951388;28;20085;-81
2022/05/15 05:31:48;;;;;;;4.53;4.13;;;10.70;99.90;;;;;;4950669;29;20055;-77
2022/05/15 05:34:17;;;;;;;5.00;4.00;;;10.80;99.90;;;;;;4949214;28;20137;-77
2022/05/15 05:36:50;;;;;;;4.10;3.70;;;10.90;99.90;;;;;;4949832;28;20555;-77
2022/05/15 05:39:17;;;;;;;4.53;3.78;;;11.00;99.90;;;;;;4950189;29;20053;-77
2022/05/15 05:41:45;;;;;;;4.95;4.28;;;11.20;99.90;;;;;;4951630;28;20043;-78
2022/05/15 05:44:12;;;;;;;7.13;3.90;;;11.30;99.90;;;;;;4951751;28;20106;-81
2022/05/15 05:46:40;;;;;;;5.43;3.50;;;11.50;99.90;;;;;;4951019;29;20298;-80
2022/05/15 05:49:07;;;;;;;3.13;2.90;;;11.70;99.90;;;;;;4951782;29;20139;-80
2022/05/15 05:51:38;;;;;;;8.15;3.42;;;11.80;99.90;;;;;;4951787;28;20142;-80
2022/05/15 05:54:05;;;;;;;3.42;3.13;;;11.90;99.90;;;;;;4952327;29;20055;-81
2022/05/15 05:56:32;;;;;;;4.72;2.63;;;12.10;99.90;;;;;;4953558;28;20114;-78
2022/05/15 05:59:00;;;;;;;5.03;3.00;;;12.20;99.90;;;;;;4954755;28;20141;-78
2022/05/15 06:01:28;;;;;;;5.50;3.15;;;12.20;99.90;;;;;;4952619;29;20126;-78
2022/05/15 06:06:41;;;;;;;4.88;2.83;;;12.40;99.90;;;;;;4952698;29;20102;-81
2022/05/15 06:09:09;;;;;;;2.78;2.58;;;12.40;99.90;;;;;;4954010;28;20043;-77
2022/05/15 06:11:37;;;;;;;5.53;2.55;;;12.40;99.90;;;;;;4966482;28;20050;-78
2022/05/15 06:14:06;;;;;;;2.40;2.20;;;12.50;99.90;;;;;;4952405;29;20050;-77
2022/05/15 06:16:33;;;;;;;3.90;2.30;;;12.50;99.90;;;;;;4952684;28;20491;-76
2022/05/15 06:19:01;;;;;;;4.28;2.20;;;12.40;99.90;;;;;;4952185;28;20126;-76
2022/05/15 06:21:28;;;;;;;4.82;2.65;;;12.50;99.90;;;;;;4953449;28;20138;-79
2022/05/15 06:23:57;;;;;;;1.92;1.77;;;12.50;99.90;;;;;;4953601;29;20592;-80
2022/05/15 06:26:25;;;;;;;2.53;1.88;;;12.60;99.90;;;;;;4953490;28;20051;-77
2022/05/15 06:28:52;;;;;;;1.98;1.77;;;12.70;99.90;;;;;;4950406;29;20512;-77
2022/05/15 06:31:19;;;;;;;3.13;2.30;;;12.60;99.90;;;;;;4951187;28;20053;-77
2022/05/15 06:33:46;;;;;;;1.52;1.42;;;12.60;99.90;;;;;;4955061;29;20055;-79
2022/05/15 06:36:14;;;;;;;4.32;1.85;;;12.50;99.90;;;;;;4958328;28;20055;-81
2022/05/15 06:38:44;;;;;;;2.75;1.20;;;12.40;99.90;;;;;;4954259;28;20055;-80
2022/05/15 06:41:12;;;;;;;2.28;1.10;;;12.50;99.90;;;;;;4953838;28;20058;-83
2022/05/15 06:43:40;;;;;;;1.70;1.27;;;12.70;99.90;;;;;;4954936;28;20051;-80
2022/05/15 06:46:07;;;;;;;4.40;1.33;;;12.60;99.90;;;;;;4939873;29;20478;-80
2022/05/15 06:48:35;;;;;;;3.30;1.80;;;12.60;99.90;;;;;;4952147;29;20050;-78
2022/05/15 06:51:03;;;;;;;2.05;1.10;;;12.60;99.90;;;;;;4953835;28;20759;-79
2022/05/15 06:53:30;;;;;;;1.48;1.10;;;12.70;99.90;;;;;;4952867;28;20050;-76
2022/05/15 06:58:45;;;;;;;1.92;1.48;;;12.70;99.90;;;;;;4952326;28;20533;-80
2022/05/15 07:01:12;;;;;;;1.20;0.93;;;12.70;99.90;;;;;;4953763;28;20047;-81
2022/05/15 07:03:39;;;;;;;3.35;0.90;;;12.70;99.90;;;;;;4955838;28;20047;-83
2022/05/15 07:06:07;;;;;;;1.52;0.88;;;12.60;99.90;;;;;;4952359;29;20067;-81
2022/05/15 07:08:34;;;;;;;0.73;0.70;;;12.70;99.90;;;;;;4953626;28;20110;-81
2022/05/15 07:11:02;;;;;;;1.98;1.27;;;12.90;99.90;;;;;;4955979;28;20055;-83
2022/05/15 07:13:29;;;;;;;1.92;0.80;;;13.10;99.90;;;;;;4956541;28;20051;-83
2022/05/15 07:15:58;;;;;;;2.60;1.00;;;13.10;99.90;;;;;;4952348;28;20327;-81
2022/05/15 07:18:27;;;;;;;0.57;0.57;;;13.20;99.90;;;;;;4955090;28;20043;-81
2022/05/15 07:20:55;;;;;;;1.58;0.95;;;13.40;99.90;;;;;;4952260;28;20163;-78
2022/05/15 07:23:23;;;;;;;2.65;0.88;;;13.40;99.90;;;;;;4950882;28;20142;-77
2022/05/15 07:25:51;;;;;;;6.75;0.80;;;13.50;99.90;;;;;;4946672;29;20146;-80
2022/05/15 07:28:18;;;;;;;4.10;0.73;;;13.50;99.90;;;;;;4952797;28;20047;-79
2022/05/15 07:30:46;;;;;;;5.22;1.25;;;13.30;99.90;;;;;;4957148;28;20046;-79
2022/05/15 07:33:18;;;;;;;1.80;0.68;;;13.10;99.90;;;;;;4956238;28;20051;-79
2022/05/15 07:35:47;;;;;;;1.58;1.00;;;12.90;99.90;;;;;;4955196;28;20507;-81
2022/05/15 07:38:14;;;;;;;1.02;0.60;;;12.80;99.90;;;;;;4955357;28;20397;-79
2022/05/15 07:40:47;;;;;;;0.60;0.60;;;12.50;99.90;;;;;;4962608;28;20436;-80
2022/05/15 07:43:15;;;;;;;3.40;1.10;;;12.40;99.90;;;;;;4941639;28;20565;-77
2022/05/15 07:45:43;;;;;;;2.55;0.80;;;12.10;99.90;;;;;;4952715;28;20039;-79
2022/05/15 07:48:10;;;;;;;2.17;0.80;;;11.90;99.90;;;;;;4953155;28;20059;-79
2022/05/15 07:50:39;;;;;;;1.02;0.82;;;11.80;99.90;;;;;;4953598;28;20110;-79
2022/05/15 07:53:11;;;;;;;0.50;0.50;;;11.70;99.90;;;;;;4949474;28;20150;-81
2022/05/15 07:55:39;;;;;;;4.45;1.02;;;11.60;99.90;;;;;;4952775;28;20055;-82
2022/05/15 07:58:13;;;;;;;1.17;0.80;;;11.60;99.90;;;;;;4954927;29;20131;-81
2022/05/15 08:00:41;;;;;;;1.80;0.70;;;11.70;99.90;;;;;;4955189;28;20059;-78
2022/05/15 08:03:20;;;;;;;0.50;0.35;;;11.50;99.90;;;;;;4948901;28;20043;-81
2022/05/15 08:08:34;;;;;;;2.38;1.23;;;11.60;99.90;;;;;;4953370;28;20043;-82
2022/05/15 08:11:02;;;;;;;2.70;0.80;;;11.60;99.90;;;;;;4950768;29;20054;-81
2022/05/15 08:13:30;;;;;;;0.85;0.73;;;11.50;99.90;;;;;;4957381;28;20062;-83
2022/05/15 08:15:58;;;;;;;1.73;0.50;;;11.50;99.90;;;;;;4943326;29;20059;-78
2022/05/15 08:24:01;;;;;;;2.70;0.63;;;11.30;99.90;;;;;;4952765;28;20585;-78
2022/05/15 08:26:29;;;;;;;8.70;0.90;;;11.20;99.90;;;;;;4954261;29;20102;-78
2022/05/15 08:29:01;;;;;;;1.10;0.40;;;11.20;99.90;;;;;;4950352;28;20579;-77
2022/05/15 08:31:28;;;;;;;2.15;0.55;;;11.40;99.90;;;;;;4948391;29;20050;-79
2022/05/15 08:33:56;;;;;;;1.65;0.88;;;11.60;99.90;;;;;;4950866;28;20055;-77
2022/05/15 08:36:26;;;;;;;2.47;0.75;;;11.90;99.90;;;;;;4952711;29;20055;-77
2022/05/15 08:38:54;;;;;;;1.70;0.75;;;11.90;99.90;;;;;;4949160;28;20089;-79
2022/05/15 08:41:33;;;;;;;0.45;0.43;;;11.90;99.90;;;;;;4948521;28;20134;-79
2022/05/15 08:44:10;;;;;;;2.00;1.27;;;11.70;99.90;;;;;;4935536;28;20427;-79
2022/05/15 08:46:49;;;;;;;4.15;0.70;;;11.70;99.90;;;;;;4951867;28;20130;-80
2022/05/15 08:49:27;;;;;;;3.17;0.70;;;11.70;99.90;;;;;;4949477;28;20102;-77
2022/05/15 08:52:07;;;;;;;2.53;1.92;;;11.60;99.90;;;;;;4947770;29;20118;-78
2022/05/15 08:54:38;;;;;;;1.52;1.00;;;11.40;99.90;;;;;;4947208;28;20530;-76
2022/05/15 08:57:11;;;;;;;2.95;0.70;;;11.40;99.90;;;;;;4950465;29;20051;-76
2022/05/15 08:59:51;;;;;;;1.38;0.75;;;11.30;99.90;;;;;;4947822;28;20565;-81
2022/05/15 09:02:18;;;;;;;6.13;1.13;;;11.10;99.90;;;;;;4935233;28;20063;-87
2022/05/15 09:04:46;;;;;;;6.82;1.20;;;11.10;99.90;;;;;;4912316;29;20142;-76
2022/05/15 09:07:22;;;;;;;2.05;1.70;;;11.00;99.90;;;;;;4892738;28;20051;-76
2022/05/15 09:09:57;;;;;;;3.10;1.75;;;11.00;99.90;;;;;;4946722;28;20047;-77
2022/05/15 09:12:25;;;;;;;3.05;1.45;;;11.10;99.90;;;;;;4949868;29;20066;-77
2022/05/15 09:15:01;;;;;;;4.28;1.50;;;11.30;99.90;;;;;;4950213;28;20078;-78
2022/05/15 09:17:36;;;;;;;3.40;2.13;;;11.60;99.90;;;;;;4932962;29;20491;-78
2022/05/15 09:20:11;;;;;;;5.95;2.45;;;11.80;99.90;;;;;;4949063;28;20490;-77
2022/05/15 09:22:46;;;;;;;2.75;1.60;;;11.90;99.90;;;;;;4949688;28;20505;-79
2022/05/15 09:25:17;;;;;;;2.30;2.10;;;12.00;99.90;;;;;;4949156;28;20047;-79
2022/05/15 09:27:59;;;;;;;6.50;3.60;;;11.90;99.90;;;;;;4945632;28;20047;-77
2022/05/15 09:30:34;;;;;;;2.88;2.40;;;11.90;99.90;;;;;;4950258;28;20106;-82
2022/05/15 09:33:01;;;;;;;4.45;1.90;;;11.80;99.90;;;;;;4955772;28;20047;-81
2022/05/15 09:35:36;;;;;;;8.40;1.08;;;11.90;99.90;;;;;;4957352;28;20051;-84
2022/05/15 09:43:55;;;;;;;3.55;2.03;;;11.70;99.90;;;;;;4932564;29;20058;-77
2022/05/15 09:46:24;;;;;;;2.17;1.98;;;11.60;99.90;;;;;;4950639;28;20138;-77
2022/05/15 09:48:56;;;;;;;9.48;1.80;;;11.50;99.90;;;;;;4937214;28;20047;-78
2022/05/15 09:51:29;;;;;;;4.45;1.45;;;11.50;99.90;;;;;;4953459;29;20619;-78
2022/05/15 09:54:00;;;;;;;3.10;1.30;;;11.60;99.90;;;;;;4951144;28;20373;-79
2022/05/15 09:56:31;;;;;;;2.17;1.60;;;11.60;99.90;;;;;;4950261;29;20504;-80
2022/05/15 09:59:05;;;;;;;2.03;1.30;;;11.70;99.90;;;;;;4953044;28;20074;-80
2022/05/15 10:01:41;;;;;;;0.93;0.70;;;11.70;99.90;;;;;;4954594;29;20534;-81
2022/05/15 10:04:21;;;;;;;1.02;0.60;;;11.60;99.90;;;;;;4950021;28;20071;-80
2022/05/15 10:06:52;;;;;;;1.23;1.00;;;11.60;99.90;;;;;;4956840;29;20082;-82
2022/05/15 10:09:28;;;;;;;3.85;0.50;;;11.60;99.90;;;;;;4954928;28;20047;-79
2022/05/15 10:12:00;;;;;;;2.05;0.77;;;11.50;99.90;;;;;;4956637;28;20070;-82
2022/05/15 10:14:35;;;;;;;2.47;0.93;;;11.50;99.90;;;;;;4953591;28;20503;-80
2022/05/15 10:17:03;;;;;;;2.45;0.98;;;11.50;99.90;;;;;;4935434;29;20563;-78
2022/05/15 10:19:35;;;;;;;3.85;1.20;;;11.60;99.90;;;;;;4951027;28;20047;-78
2022/05/15 10:22:11;;;;;;;;;;;11.60;99.90;;;;;;4953512;29;20078;-79
2022/05/15 10:24:44;;;;;;;3.63;1.23;;;11.70;99.90;;;;;;4954637;28;19933;-81
2022/05/15 10:27:16;;;;;;;5.57;0.80;;;11.70;99.90;;;;;;4950367;28;20566;-81
2022/05/15 10:29:53;;;;;;;2.65;1.08;;;11.80;99.90;;;;;;4960069;28;20412;-85
2022/05/15 10:32:28;;;;;;;0.75;0.60;;;11.90;99.90;;;;;;4956938;28;20711;-86
2022/05/15 10:34:56;;;;;;;0.43;0.43;;;11.90;99.90;;;;;;4954619;28;20051;-81
2022/05/15 10:37:45;;;;;;;4.78;1.88;;;11.90;99.90;;;;;;4951977;29;20142;-80
2022/05/15 10:40:36;;;;;;;3.20;1.02;;;11.80;99.90;;;;;;4957679;28;20051;-83
2022/05/15 10:43:36;;;;;;;4.82;1.00;;;11.60;99.90;;;;;;4961106;28;20238;-83
2022/05/15 10:46:10;;;;;;;2.65;0.95;;;11.60;99.90;;;;;;4956294;28;20488;-83
2022/05/15 10:48:51;;;;;;;5.97;1.75;;;11.70;99.90;;;;;;4955511;28;20575;-84
2022/05/15 10:51:23;;;;;;;2.80;0.68;;;11.70;99.90;;;;;;4955578;28;20039;-83
2022/05/15 10:57:24;;;;;;;1.35;0.90;;;11.80;99.90;;;;;;4956344;29;20338;-82
2022/05/15 10:59:56;;;;;;;1.42;1.33;;;11.90;99.90;;;;;;4952991;28;20166;-83
2022/05/15 11:02:56;;;;;;;0.98;0.60;;;11.90;99.90;;;;;;4953934;29;20082;-84
2022/05/15 11:05:28;;;;;;;8.23;0.95;;;12.00;99.90;;;;;;4936503;28;20146;-79
2022/05/15 11:08:04;;;;;;;3.65;0.90;;;12.00;99.90;;;;;;4947843;29;20594;-79
2022/05/15 11:10:50;;;;;;;1.20;0.80;;;12.20;99.90;;;;;;4952356;28;20055;-80
2022/05/15 11:13:22;;;;;;;1.30;0.60;;;12.40;99.90;;;;;;4951337;29;20050;-80
2022/05/15 11:15:59;;;;;;;2.60;0.68;;;12.60;99.90;;;;;;4953469;28;20061;-78
2022/05/15 11:18:43;;;;;;;2.25;0.70;;;12.50;99.90;;;;;;4952260;29;20337;-82
2022/05/15 11:21:18;;;;;;;1.98;0.70;;;12.30;99.90;;;;;;4955476;28;20105;-80
2022/05/15 11:23:56;;;;;;;4.55;0.80;;;12.20;99.90;;;;;;4961005;28;20051;-82
2022/05/15 11:26:31;;;;;;;2.72;0.40;;;12.20;99.90;;;;;;4953864;28;20051;-81
2022/05/15 11:29:05;;;;;;;3.05;0.73;;;12.30;99.90;;;;;;4958425;28;20087;-82
2022/05/15 11:31:37;;;;;;;4.10;0.80;;;12.30;99.90;;;;;;4959725;28;20479;-84
2022/05/15 11:34:07;;;;;;;9.55;3.10;;;12.50;99.90;;;;;;4957630;28;20138;-81
2022/05/15 11:36:38;;;;;;;6.78;1.90;;;12.80;99.90;;;;;;4937701;29;20070;-82
2022/05/15 11:39:24;;;;;;;4.53;1.95;;;13.00;99.90;;;;;;4953321;28;20094;-84
2022/05/15 11:42:17;;;;;;;0.82;0.73;;;13.00;99.90;;;;;;4954392;29;20110;-81
2022/05/15 11:44:48;;;;;;;0.88;0.63;;;13.00;99.90;;;;;;4951473;28;20063;-83
2022/05/15 11:47:34;;;;;;;1.27;0.77;;;12.80;99.90;;;;;;4952388;28;20042;-85
2022/05/15 11:50:29;;;;;;;2.97;0.82;;;12.40;99.90;;;;;;4953037;28;20055;-79
2022/05/15 11:53:08;;;;;;;1.05;0.75;;;12.30;99.90;;;;;;4949317;28;20063;-79
2022/05/15 11:55:44;;;;;;;4.93;1.13;;;12.90;99.90;;;;;;4948391;28;20051;-80
2022/05/15 11:58:23;;;;;;;1.83;0.68;;;15.60;99.90;;;;;;4950746;28;20155;-79
2022/05/15 12:01:16;;;;;;;2.58;0.73;;;18.30;99.90;;;;;;4950822;28;20539;-78
2022/05/15 12:03:59;;;;;;;1.58;0.93;;;19.80;88.10;;;;;;4932622;28;20047;-78
2022/05/15 12:06:29;;;;;;;3.13;0.80;;;20.00;80.50;;;;;;4946966;28;20757;-78
2022/05/15 12:09:33;;;;;;;3.13;0.63;;;19.20;78.40;;;;;;4949055;28;20062;-80
2022/05/15 12:12:50;;;;;;;7.30;0.90;;;18.00;81.50;;;;;;4946499;29;20500;-80
2022/05/15 12:15:40;;;;;;;1.58;0.60;;;16.60;90.50;;;;;;4947230;28;20684;-80
2022/05/15 12:18:28;;;;;;;2.00;0.93;;;15.60;96.70;;;;;;4949441;28;20059;-79
2022/05/15 12:20:57;;;;;;;4.60;1.50;;;15.10;99.90;;;;;;4945054;28;20074;-80
2022/05/15 12:23:30;;;;;;;4.80;1.65;;;14.60;99.90;;;;;;4948835;29;20051;-79
2022/05/15 12:26:00;;;;;;;5.53;1.50;;;14.00;99.90;;;;;;4949397;28;20059;-80
2022/05/15 12:28:54;;;;;;;3.95;1.40;;;13.60;99.90;;;;;;4949442;28;20051;-78
2022/05/15 12:31:24;;;;;;;;;;;13.30;99.90;;;;;;4946354;29;20059;-79
2022/05/15 12:33:54;;;;;;;3.03;0.80;;;13.20;99.90;;;;;;4948709;28;19930;-80
2022/05/15 12:36:35;;;;;;;2.38;0.80;;;13.20;99.90;;;;;;4948437;29;20047;-79
2022/05/15 12:39:04;;;;;;;4.28;0.70;;;13.40;99.90;;;;;;4947836;28;20522;-80
2022/05/15 12:41:36;;;;;;;1.63;1.00;;;14.30;99.90;;;;;;4947350;29;20047;-79
2022/05/15 12:44:05;;;;;;;2.85;2.17;;;14.50;99.90;;;;;;4949650;28;20051;-81
2022/05/15 12:46:36;;;;;;;1.80;0.68;;;14.50;99.90;;;;;;4951150;29;20047;-78
2022/05/15 12:49:07;;;;;;;3.58;0.63;;;14.40;99.90;;;;;;4947361;28;20411;-80
2022/05/15 12:51:37;;;;;;;2.97;0.70;;;15.60;99.90;;;;;;4948981;29;20059;-78
2022/05/15 12:54:21;;;;;;;1.50;0.85;;;18.40;98.90;;;;;;4950443;28;20459;-79
2022/05/15 12:56:58;;;;;;;2.55;1.00;;;21.10;80.70;;;;;;4933643;29;20058;-79
2022/05/15 12:59:28;;;;;;;3.63;0.77;;;23.00;64.90;;;;;;4946975;28;20169;-82
2022/05/15 13:01:55;;;;;;;2.35;0.80;;;24.30;60.80;;;;;;4950308;28;20059;-80
2022/05/15 13:04:28;;;;;;;2.28;0.60;;;25.30;54.80;;;;;;4950188;28;20091;-82
2022/05/15 13:06:58;;;;;;;2.22;1.00;;;25.80;52.50;;;;;;4954250;29;20055;-82
2022/05/15 13:09:31;;;;;;;2.55;1.40;;;26.40;51.00;;;;;;4952280;28;20051;-83
2022/05/15 13:12:01;;;;;;;2.67;0.80;;;26.70;50.20;;;;;;4953745;29;20097;-80
2022/05/15 13:14:31;;;;;;;1.40;0.70;;;27.10;49.00;;;;;;4936381;29;20036;-79
2022/05/15 13:17:00;;;;;;;2.17;0.70;;;26.50;48.90;;;;;;4950681;28;20048;-80
2022/05/15 13:19:35;;;;;;;6.65;0.65;;;24.90;49.90;;;;;;4952328;28;20039;-80
2022/05/15 13:22:04;;;;;;;2.63;1.10;;;22.50;53.90;;;;;;4952788;29;20161;-79
2022/05/15 13:24:33;;;;;;;2.08;1.48;;;20.30;58.60;;;;;;4953647;28;20047;-79
2022/05/15 13:27:02;;;;;;;5.72;2.22;;;18.50;63.50;;;;;;4950500;28;20053;-85
2022/05/15 13:29:33;;;;;;;4.95;1.27;;;17.30;68.00;;;;;;4962695;28;20047;-86
2022/05/15 13:32:08;;;;;;;5.68;0.80;;;16.50;73.30;;;;;;4951472;29;20047;-88
2022/05/15 13:34:41;;;;;;;6.38;0.90;;;16.00;80.70;;;;;;4968278;28;20047;-85
2022/05/15 13:37:28;;;;;;;1.90;1.00;;;15.70;93.20;;;;;;4965823;29;20039;-89